Versailles, IN (47042)

1:17 PM EST on December 08, 2016 (GMT -0500)
Holt Road | | Change Station

Elev 991 ft 39.18 °N, 85.09 °W | Updated 1 second ago

Partly Cloudy
Partly Cloudy
29.3 °F
Feels Like 23 °F
N
6.0
Wind Variable Wind from WSW
Gusts 7.4 mph

Today
High -- | Low -- °F
--% Chance of Precip.
Yesterday
High -- | Low -- °F
Precip. -- in
Pressure 30.29 in
Visibility 10.0 miles
Clouds Few 3200 ft
Windchill 23 °F
Dew Point 14 °F
Humidity 52%
Rainfall 0.00 in
Snow Depth Not available.
7:47 AM 5:18 PM
Waxing Gibbous, 65% visible
METAR KCVG 081752Z 27015KT 10SM FEW032 00/M09 A3027 RMK AO2 SLP257 T00001094 10000 21044 58001
Pressure 30.29 in
Visibility 10.0 miles
Clouds Few 3200 ft
Windchill 23 °F
Dew Point 14 °F
Humidity 52%
Rainfall 0.00 in
Snow Depth Not available.
7:47 AM 5:18 PM
Waxing Gibbous, 65% visible
METAR KCVG 081752Z 27015KT 10SM FEW032 00/M09 A3027 RMK AO2 SLP257 T00001094 10000 21044 58001

10-Day Weather Forecast

Almanac

Astronomy

Dec. 08, 2016 Rise Set
Actual Time
Civil Twilight
Nautical Twilight
Astronomical Twilight
Moon
Length of Visible Light
Length of Day
Tomorrow will be .
, % of the Moon is Illuminated

Today's Extremes

State Highs State Lows

Community

WunderPhotos

Upload Photos

1,956,277 photos uploaded!

WunderBlog® & News

Nearby

Air Quality

  Air Quality AQ Index Pollutant
Not available.

Snow Depth

Station Depth Elevation

Earthquake Activity

City Distance Mag. Time & Date
Minimum magnitude displayed is 2.5.

Coastal Water Temperatures

Place Temperature

Stations

Nearby Weather Stations

Station Location Temp. Windchill Dew Point Humidity Wind Precip. Elev Updated Type
                   

Watches & Warnings

There are currently no watches in effect.